sensor_id;sensor_type;location;lat;lon;timestamp;P1;durP1;ratioP1;P2;durP2;ratioP2
1721;SDS011;858;53.190;8.596;2023-08-20T00:01:45;8.63;;;5.27;;
1721;SDS011;858;53.190;8.596;2023-08-20T00:04:12;9.07;;;6.60;;
1721;SDS011;858;53.190;8.596;2023-08-20T00:06:39;10.40;;;7.57;;
1721;SDS011;858;53.190;8.596;2023-08-20T00:09:08;9.23;;;6.40;;
1721;SDS011;858;53.190;8.596;2023-08-20T00:11:35;7.93;;;6.87;;
1721;SDS011;858;53.190;8.596;2023-08-20T00:14:01;10.60;;;6.57;;
1721;SDS011;858;53.190;8.596;2023-08-20T00:16:29;9.67;;;7.07;;
1721;SDS011;858;53.190;8.596;2023-08-20T00:18:56;6.33;;;5.50;;
1721;SDS011;858;53.190;8.596;2023-08-20T00:21:23;7.77;;;5.77;;
1721;SDS011;858;53.190;8.596;2023-08-20T00:23:52;7.73;;;5.10;;
1721;SDS011;858;53.190;8.596;2023-08-20T00:26:20;8.60;;;5.67;;
1721;SDS011;858;53.190;8.596;2023-08-20T00:28:46;7.63;;;5.07;;
1721;SDS011;858;53.190;8.596;2023-08-20T00:31:14;7.03;;;5.33;;
1721;SDS011;858;53.190;8.596;2023-08-20T00:33:42;7.30;;;5.03;;
1721;SDS011;858;53.190;8.596;2023-08-20T00:36:08;6.47;;;5.40;;
1721;SDS011;858;53.190;8.596;2023-08-20T00:38:34;6.97;;;4.87;;
1721;SDS011;858;53.190;8.596;2023-08-20T00:41:01;7.80;;;5.50;;
1721;SDS011;858;53.190;8.596;2023-08-20T00:43:29;5.73;;;5.13;;
1721;SDS011;858;53.190;8.596;2023-08-20T00:45:55;6.00;;;5.30;;
1721;SDS011;858;53.190;8.596;2023-08-20T00:48:22;8.53;;;6.23;;
1721;SDS011;858;53.190;8.596;2023-08-20T00:50:50;6.27;;;5.53;;
1721;SDS011;858;53.190;8.596;2023-08-20T00:53:16;5.63;;;5.03;;
1721;SDS011;858;53.190;8.596;2023-08-20T00:55:43;7.83;;;6.47;;
1721;SDS011;858;53.190;8.596;2023-08-20T00:58:10;6.10;;;5.50;;
1721;SDS011;858;53.190;8.596;2023-08-20T01:00:36;7.33;;;5.10;;
1721;SDS011;858;53.190;8.596;2023-08-20T01:03:03;8.70;;;6.00;;
1721;SDS011;858;53.190;8.596;2023-08-20T01:05:31;8.73;;;5.53;;
1721;SDS011;858;53.190;8.596;2023-08-20T01:08:04;10.93;;;7.20;;
1721;SDS011;858;53.190;8.596;2023-08-20T01:10:38;10.13;;;6.37;;
1721;SDS011;858;53.190;8.596;2023-08-20T01:13:07;6.87;;;5.30;;
1721;SDS011;858;53.190;8.596;2023-08-20T01:15:34;12.97;;;5.10;;
1721;SDS011;858;53.190;8.596;2023-08-20T01:18:01;7.27;;;5.53;;
1721;SDS011;858;53.190;8.596;2023-08-20T01:20:29;7.77;;;5.23;;
1721;SDS011;858;53.190;8.596;2023-08-20T01:23:08;5.93;;;4.40;;
1721;SDS011;858;53.190;8.596;2023-08-20T01:25:44;11.40;;;5.93;;
1721;SDS011;858;53.190;8.596;2023-08-20T01:30:59;7.47;;;5.70;;
1721;SDS011;858;53.190;8.596;2023-08-20T01:33:27;9.90;;;6.57;;
1721;SDS011;858;53.190;8.596;2023-08-20T01:35:54;11.20;;;7.50;;
1721;SDS011;858;53.190;8.596;2023-08-20T01:38:21;9.07;;;6.30;;
1721;SDS011;858;53.190;8.596;2023-08-20T01:40:47;8.13;;;6.40;;
1721;SDS011;858;53.190;8.596;2023-08-20T01:43:14;8.23;;;5.53;;
1721;SDS011;858;53.190;8.596;2023-08-20T01:45:40;5.47;;;4.47;;
1721;SDS011;858;53.190;8.596;2023-08-20T01:48:08;4.60;;;4.10;;
1721;SDS011;858;53.190;8.596;2023-08-20T01:50:35;7.20;;;4.87;;
1721;SDS011;858;53.190;8.596;2023-08-20T01:53:01;5.83;;;4.60;;
1721;SDS011;858;53.190;8.596;2023-08-20T01:55:27;8.43;;;6.43;;
1721;SDS011;858;53.190;8.596;2023-08-20T01:57:54;8.10;;;7.30;;
1721;SDS011;858;53.190;8.596;2023-08-20T02:00:20;7.20;;;6.13;;
1721;SDS011;858;53.190;8.596;2023-08-20T02:02:46;6.80;;;6.20;;
1721;SDS011;858;53.190;8.596;2023-08-20T02:05:14;8.60;;;6.80;;
1721;SDS011;858;53.190;8.596;2023-08-20T02:07:41;8.80;;;7.80;;
1721;SDS011;858;53.190;8.596;2023-08-20T02:10:08;13.63;;;7.17;;
1721;SDS011;858;53.190;8.596;2023-08-20T02:12:34;8.17;;;5.77;;
1721;SDS011;858;53.190;8.596;2023-08-20T02:15:01;7.10;;;6.33;;
1721;SDS011;858;53.190;8.596;2023-08-20T02:17:28;6.97;;;6.27;;
1721;SDS011;858;53.190;8.596;2023-08-20T02:19:55;7.50;;;4.57;;
1721;SDS011;858;53.190;8.596;2023-08-20T02:22:23;5.77;;;4.90;;
1721;SDS011;858;53.190;8.596;2023-08-20T02:24:49;4.83;;;3.83;;
1721;SDS011;858;53.190;8.596;2023-08-20T02:27:15;8.33;;;4.63;;
1721;SDS011;858;53.190;8.596;2023-08-20T02:29:42;7.33;;;4.17;;
1721;SDS011;858;53.190;8.596;2023-08-20T02:32:11;7.20;;;5.20;;
1721;SDS011;858;53.190;8.596;2023-08-20T02:34:37;6.60;;;4.67;;
1721;SDS011;858;53.190;8.596;2023-08-20T02:37:04;7.70;;;5.20;;
1721;SDS011;858;53.190;8.596;2023-08-20T02:39:31;10.70;;;6.70;;
1721;SDS011;858;53.190;8.596;2023-08-20T02:41:58;24.03;;;7.20;;
1721;SDS011;858;53.190;8.596;2023-08-20T02:44:24;7.53;;;5.63;;
1721;SDS011;858;53.190;8.596;2023-08-20T02:46:50;10.57;;;5.83;;
1721;SDS011;858;53.190;8.596;2023-08-20T02:49:17;11.80;;;5.90;;
1721;SDS011;858;53.190;8.596;2023-08-20T02:51:43;8.20;;;7.07;;
1721;SDS011;858;53.190;8.596;2023-08-20T02:54:10;10.30;;;6.23;;
1721;SDS011;858;53.190;8.596;2023-08-20T02:56:38;10.53;;;4.93;;
1721;SDS011;858;53.190;8.596;2023-08-20T02:59:04;4.63;;;4.20;;
1721;SDS011;858;53.190;8.596;2023-08-20T03:01:30;7.10;;;4.70;;
1721;SDS011;858;53.190;8.596;2023-08-20T03:03:57;5.27;;;4.73;;
1721;SDS011;858;53.190;8.596;2023-08-20T03:06:23;6.80;;;4.37;;
1721;SDS011;858;53.190;8.596;2023-08-20T03:08:49;8.27;;;4.57;;
1721;SDS011;858;53.190;8.596;2023-08-20T03:11:16;11.33;;;5.10;;
1721;SDS011;858;53.190;8.596;2023-08-20T03:13:47;7.47;;;5.67;;
1721;SDS011;858;53.190;8.596;2023-08-20T03:16:15;7.70;;;6.30;;
1721;SDS011;858;53.190;8.596;2023-08-20T03:18:41;7.03;;;5.83;;
1721;SDS011;858;53.190;8.596;2023-08-20T03:21:08;8.03;;;5.57;;
1721;SDS011;858;53.190;8.596;2023-08-20T03:23:34;5.37;;;4.83;;
1721;SDS011;858;53.190;8.596;2023-08-20T03:26:00;8.13;;;5.47;;
1721;SDS011;858;53.190;8.596;2023-08-20T03:28:27;6.83;;;5.43;;
1721;SDS011;858;53.190;8.596;2023-08-20T03:30:58;8.23;;;5.03;;
1721;SDS011;858;53.190;8.596;2023-08-20T03:33:25;8.70;;;4.50;;
1721;SDS011;858;53.190;8.596;2023-08-20T03:35:51;6.20;;;4.87;;
1721;SDS011;858;53.190;8.596;2023-08-20T03:38:17;6.60;;;5.37;;
1721;SDS011;858;53.190;8.596;2023-08-20T03:40:44;5.97;;;5.40;;
1721;SDS011;858;53.190;8.596;2023-08-20T03:43:11;9.93;;;6.10;;
1721;SDS011;858;53.190;8.596;2023-08-20T03:45:37;6.50;;;5.40;;
1721;SDS011;858;53.190;8.596;2023-08-20T03:48:06;7.17;;;6.47;;
1721;SDS011;858;53.190;8.596;2023-08-20T03:50:32;9.53;;;6.10;;
1721;SDS011;858;53.190;8.596;2023-08-20T03:53:02;9.20;;;5.70;;
1721;SDS011;858;53.190;8.596;2023-08-20T03:55:30;8.73;;;6.00;;
1721;SDS011;858;53.190;8.596;2023-08-20T03:57:56;10.03;;;4.93;;
1721;SDS011;858;53.190;8.596;2023-08-20T04:00:23;7.27;;;5.63;;
1721;SDS011;858;53.190;8.596;2023-08-20T04:02:49;9.67;;;6.63;;
1721;SDS011;858;53.190;8.596;2023-08-20T04:05:17;12.50;;;6.43;;
1721;SDS011;858;53.190;8.596;2023-08-20T04:07:43;11.53;;;6.30;;
1721;SDS011;858;53.190;8.596;2023-08-20T04:10:10;10.10;;;5.90;;
1721;SDS011;858;53.190;8.596;2023-08-20T04:12:36;9.50;;;5.90;;
1721;SDS011;858;53.190;8.596;2023-08-20T04:15:04;8.63;;;6.13;;
1721;SDS011;858;53.190;8.596;2023-08-20T04:17:31;8.10;;;5.87;;
1721;SDS011;858;53.190;8.596;2023-08-20T04:19:57;8.80;;;6.77;;
1721;SDS011;858;53.190;8.596;2023-08-20T04:22:25;9.07;;;6.50;;
1721;SDS011;858;53.190;8.596;2023-08-20T04:24:53;7.90;;;6.70;;
1721;SDS011;858;53.190;8.596;2023-08-20T04:27:20;12.93;;;6.83;;
1721;SDS011;858;53.190;8.596;2023-08-20T04:29:46;6.57;;;5.87;;
1721;SDS011;858;53.190;8.596;2023-08-20T04:32:12;13.13;;;6.43;;
1721;SDS011;858;53.190;8.596;2023-08-20T04:34:39;6.27;;;5.67;;
1721;SDS011;858;53.190;8.596;2023-08-20T04:37:05;10.47;;;6.63;;
1721;SDS011;858;53.190;8.596;2023-08-20T04:39:33;9.83;;;7.87;;
1721;SDS011;858;53.190;8.596;2023-08-20T04:41:59;13.53;;;7.30;;
1721;SDS011;858;53.190;8.596;2023-08-20T04:44:25;12.47;;;10.47;;
1721;SDS011;858;53.190;8.596;2023-08-20T04:46:52;13.07;;;9.23;;
1721;SDS011;858;53.190;8.596;2023-08-20T04:49:19;12.53;;;8.50;;
1721;SDS011;858;53.190;8.596;2023-08-20T04:51:45;10.70;;;8.70;;
1721;SDS011;858;53.190;8.596;2023-08-20T04:54:12;12.53;;;7.80;;
1721;SDS011;858;53.190;8.596;2023-08-20T04:56:39;11.43;;;8.80;;
1721;SDS011;858;53.190;8.596;2023-08-20T04:59:06;10.57;;;7.53;;
1721;SDS011;858;53.190;8.596;2023-08-20T05:01:32;11.87;;;8.13;;
1721;SDS011;858;53.190;8.596;2023-08-20T05:03:59;12.50;;;8.93;;
1721;SDS011;858;53.190;8.596;2023-08-20T05:06:25;14.67;;;8.80;;
1721;SDS011;858;53.190;8.596;2023-08-20T05:08:51;12.70;;;9.00;;
1721;SDS011;858;53.190;8.596;2023-08-20T05:11:18;10.60;;;9.40;;
1721;SDS011;858;53.190;8.596;2023-08-20T05:13:47;12.90;;;10.00;;
1721;SDS011;858;53.190;8.596;2023-08-20T05:16:13;13.30;;;9.50;;
1721;SDS011;858;53.190;8.596;2023-08-20T05:18:39;9.83;;;8.83;;
1721;SDS011;858;53.190;8.596;2023-08-20T05:21:06;11.03;;;8.83;;
1721;SDS011;858;53.190;8.596;2023-08-20T05:23:32;9.23;;;8.17;;
1721;SDS011;858;53.190;8.596;2023-08-20T05:25:59;10.40;;;8.23;;
1721;SDS011;858;53.190;8.596;2023-08-20T05:28:25;12.47;;;8.60;;
1721;SDS011;858;53.190;8.596;2023-08-20T05:30:55;12.87;;;9.43;;
1721;SDS011;858;53.190;8.596;2023-08-20T05:33:22;10.50;;;9.47;;
1721;SDS011;858;53.190;8.596;2023-08-20T05:35:48;12.33;;;9.20;;
1721;SDS011;858;53.190;8.596;2023-08-20T05:38:15;11.50;;;9.47;;
1721;SDS011;858;53.190;8.596;2023-08-20T05:40:41;18.47;;;9.47;;
1721;SDS011;858;53.190;8.596;2023-08-20T05:43:07;16.00;;;11.70;;
1721;SDS011;858;53.190;8.596;2023-08-20T05:45:35;13.03;;;10.50;;
1721;SDS011;858;53.190;8.596;2023-08-20T05:48:02;11.20;;;10.07;;
1721;SDS011;858;53.190;8.596;2023-08-20T05:50:29;11.10;;;9.43;;
1721;SDS011;858;53.190;8.596;2023-08-20T05:52:55;16.73;;;11.20;;
1721;SDS011;858;53.190;8.596;2023-08-20T05:55:23;16.07;;;11.97;;
1721;SDS011;858;53.190;8.596;2023-08-20T05:57:49;20.90;;;12.43;;
1721;SDS011;858;53.190;8.596;2023-08-20T06:00:16;16.20;;;11.00;;
1721;SDS011;858;53.190;8.596;2023-08-20T06:02:42;18.00;;;12.33;;
1721;SDS011;858;53.190;8.596;2023-08-20T06:05:10;16.37;;;13.57;;
1721;SDS011;858;53.190;8.596;2023-08-20T06:07:38;18.93;;;13.33;;
1721;SDS011;858;53.190;8.596;2023-08-20T06:10:04;20.00;;;15.10;;
1721;SDS011;858;53.190;8.596;2023-08-20T06:12:31;21.80;;;14.80;;
1721;SDS011;858;53.190;8.596;2023-08-20T06:14:57;20.23;;;13.43;;
1721;SDS011;858;53.190;8.596;2023-08-20T06:17:24;23.37;;;15.27;;
1721;SDS011;858;53.190;8.596;2023-08-20T06:19:50;22.00;;;15.80;;
1721;SDS011;858;53.190;8.596;2023-08-20T06:22:18;20.57;;;14.73;;
1721;SDS011;858;53.190;8.596;2023-08-20T06:24:44;20.97;;;15.30;;
1721;SDS011;858;53.190;8.596;2023-08-20T06:27:11;19.20;;;15.70;;
1721;SDS011;858;53.190;8.596;2023-08-20T06:29:37;27.90;;;16.80;;
1721;SDS011;858;53.190;8.596;2023-08-20T06:32:04;27.10;;;16.70;;
1721;SDS011;858;53.190;8.596;2023-08-20T06:34:31;23.87;;;14.70;;
1721;SDS011;858;53.190;8.596;2023-08-20T06:36:59;22.87;;;15.47;;
1721;SDS011;858;53.190;8.596;2023-08-20T06:39:27;21.50;;;14.90;;
1721;SDS011;858;53.190;8.596;2023-08-20T06:41:53;20.37;;;13.90;;
1721;SDS011;858;53.190;8.596;2023-08-20T06:44:20;18.73;;;13.80;;
1721;SDS011;858;53.190;8.596;2023-08-20T06:46:46;20.30;;;13.97;;
1721;SDS011;858;53.190;8.596;2023-08-20T06:49:13;17.83;;;13.67;;
1721;SDS011;858;53.190;8.596;2023-08-20T06:51:40;18.83;;;12.43;;
1721;SDS011;858;53.190;8.596;2023-08-20T06:54:07;18.10;;;12.63;;
1721;SDS011;858;53.190;8.596;2023-08-20T06:56:34;18.90;;;11.63;;
1721;SDS011;858;53.190;8.596;2023-08-20T06:59:01;18.20;;;12.13;;
1721;SDS011;858;53.190;8.596;2023-08-20T07:01:28;17.10;;;12.83;;
1721;SDS011;858;53.190;8.596;2023-08-20T07:03:54;19.00;;;11.90;;
1721;SDS011;858;53.190;8.596;2023-08-20T07:06:20;15.50;;;11.03;;
1721;SDS011;858;53.190;8.596;2023-08-20T07:08:49;16.83;;;10.53;;
1721;SDS011;858;53.190;8.596;2023-08-20T07:11:16;23.27;;;11.70;;
1721;SDS011;858;53.190;8.596;2023-08-20T07:13:44;14.53;;;10.17;;
1721;SDS011;858;53.190;8.596;2023-08-20T07:16:10;16.13;;;11.07;;
1721;SDS011;858;53.190;8.596;2023-08-20T07:18:37;20.90;;;10.30;;
1721;SDS011;858;53.190;8.596;2023-08-20T07:21:03;14.97;;;9.33;;
1721;SDS011;858;53.190;8.596;2023-08-20T07:23:30;13.40;;;10.67;;
1721;SDS011;858;53.190;8.596;2023-08-20T07:26:03;12.90;;;8.70;;
1721;SDS011;858;53.190;8.596;2023-08-20T07:28:30;14.60;;;9.57;;
1721;SDS011;858;53.190;8.596;2023-08-20T07:31:11;13.37;;;8.53;;
1721;SDS011;858;53.190;8.596;2023-08-20T07:33:38;15.83;;;9.03;;
1721;SDS011;858;53.190;8.596;2023-08-20T07:36:04;11.30;;;8.60;;
1721;SDS011;858;53.190;8.596;2023-08-20T07:38:31;14.10;;;8.37;;
1721;SDS011;858;53.190;8.596;2023-08-20T07:40:58;17.20;;;8.17;;
1721;SDS011;858;53.190;8.596;2023-08-20T07:43:24;13.03;;;8.80;;
1721;SDS011;858;53.190;8.596;2023-08-20T07:45:51;12.03;;;9.30;;
1721;SDS011;858;53.190;8.596;2023-08-20T07:48:19;15.97;;;9.50;;
1721;SDS011;858;53.190;8.596;2023-08-20T07:50:45;16.77;;;10.57;;
1721;SDS011;858;53.190;8.596;2023-08-20T07:53:13;13.57;;;7.87;;
1721;SDS011;858;53.190;8.596;2023-08-20T07:55:39;11.70;;;7.70;;
1721;SDS011;858;53.190;8.596;2023-08-20T07:58:05;14.63;;;7.10;;
1721;SDS011;858;53.190;8.596;2023-08-20T08:00:32;17.53;;;7.40;;
1721;SDS011;858;53.190;8.596;2023-08-20T08:02:58;9.90;;;6.00;;
1721;SDS011;858;53.190;8.596;2023-08-20T08:05:26;10.40;;;5.20;;
1721;SDS011;858;53.190;8.596;2023-08-20T08:07:52;13.43;;;5.23;;
1721;SDS011;858;53.190;8.596;2023-08-20T08:10:19;13.00;;;5.10;;
1721;SDS011;858;53.190;8.596;2023-08-20T08:12:45;12.13;;;4.73;;
1721;SDS011;858;53.190;8.596;2023-08-20T08:15:12;8.33;;;4.43;;
1721;SDS011;858;53.190;8.596;2023-08-20T08:17:38;14.27;;;5.30;;
1721;SDS011;858;53.190;8.596;2023-08-20T08:20:05;7.53;;;4.17;;
1721;SDS011;858;53.190;8.596;2023-08-20T08:22:34;10.87;;;4.20;;
1721;SDS011;858;53.190;8.596;2023-08-20T08:25:00;10.47;;;4.80;;
1721;SDS011;858;53.190;8.596;2023-08-20T08:27:27;12.50;;;5.07;;
1721;SDS011;858;53.190;8.596;2023-08-20T08:29:53;13.07;;;5.27;;
1721;SDS011;858;53.190;8.596;2023-08-20T08:32:19;10.40;;;5.00;;
1721;SDS011;858;53.190;8.596;2023-08-20T08:34:46;10.63;;;4.27;;
1721;SDS011;858;53.190;8.596;2023-08-20T08:37:12;8.27;;;4.70;;
1721;SDS011;858;53.190;8.596;2023-08-20T08:39:42;11.53;;;5.40;;
1721;SDS011;858;53.190;8.596;2023-08-20T08:42:08;9.13;;;4.27;;
1721;SDS011;858;53.190;8.596;2023-08-20T08:44:36;12.20;;;4.93;;
1721;SDS011;858;53.190;8.596;2023-08-20T17:36:52;9.25;;;3.55;;
1721;SDS011;858;53.190;8.596;2023-08-20T17:39:20;9.03;;;3.50;;
1721;SDS011;858;53.190;8.596;2023-08-20T17:41:47;9.27;;;3.40;;
1721;SDS011;858;53.190;8.596;2023-08-20T17:44:13;9.50;;;3.20;;
1721;SDS011;858;53.190;8.596;2023-08-20T17:46:43;10.80;;;3.60;;
1721;SDS011;858;53.190;8.596;2023-08-20T17:49:09;10.60;;;4.00;;
1721;SDS011;858;53.190;8.596;2023-08-20T17:51:35;7.93;;;2.90;;
1721;SDS011;858;53.190;8.596;2023-08-20T17:54:03;9.70;;;2.93;;
1721;SDS011;858;53.190;8.596;2023-08-20T17:56:30;6.40;;;2.73;;
1721;SDS011;858;53.190;8.596;2023-08-20T17:58:56;9.20;;;3.20;;
1721;SDS011;858;53.190;8.596;2023-08-20T18:01:22;7.97;;;3.00;;
1721;SDS011;858;53.190;8.596;2023-08-20T18:03:49;8.07;;;3.00;;
1721;SDS011;858;53.190;8.596;2023-08-20T18:06:18;10.13;;;2.90;;
1721;SDS011;858;53.190;8.596;2023-08-20T18:08:46;12.30;;;3.47;;
1721;SDS011;858;53.190;8.596;2023-08-20T18:11:14;13.60;;;4.17;;
1721;SDS011;858;53.190;8.596;2023-08-20T18:13:40;9.50;;;3.67;;
1721;SDS011;858;53.190;8.596;2023-08-20T18:16:07;8.87;;;3.43;;
1721;SDS011;858;53.190;8.596;2023-08-20T18:18:34;9.17;;;3.73;;
1721;SDS011;858;53.190;8.596;2023-08-20T18:21:00;10.87;;;3.63;;
1721;SDS011;858;53.190;8.596;2023-08-20T18:23:26;14.17;;;3.97;;
1721;SDS011;858;53.190;8.596;2023-08-20T18:25:53;10.43;;;3.87;;
1721;SDS011;858;53.190;8.596;2023-08-20T18:28:21;11.00;;;4.77;;
1721;SDS011;858;53.190;8.596;2023-08-20T18:30:48;10.53;;;4.07;;
1721;SDS011;858;53.190;8.596;2023-08-20T18:33:15;12.40;;;4.20;;
1721;SDS011;858;53.190;8.596;2023-08-20T18:35:41;9.47;;;4.10;;
1721;SDS011;858;53.190;8.596;2023-08-20T18:38:09;5.97;;;3.10;;
1721;SDS011;858;53.190;8.596;2023-08-20T18:40:36;12.00;;;3.50;;
1721;SDS011;858;53.190;8.596;2023-08-20T18:43:02;12.50;;;4.13;;
1721;SDS011;858;53.190;8.596;2023-08-20T18:45:30;8.93;;;4.20;;
1721;SDS011;858;53.190;8.596;2023-08-20T18:47:56;8.77;;;3.63;;
1721;SDS011;858;53.190;8.596;2023-08-20T18:50:23;13.63;;;4.17;;
1721;SDS011;858;53.190;8.596;2023-08-20T18:52:51;8.50;;;3.27;;
1721;SDS011;858;53.190;8.596;2023-08-20T18:55:17;14.00;;;3.57;;
1721;SDS011;858;53.190;8.596;2023-08-20T18:57:44;11.40;;;4.00;;
1721;SDS011;858;53.190;8.596;2023-08-20T19:00:11;7.77;;;4.10;;
1721;SDS011;858;53.190;8.596;2023-08-20T19:02:39;6.70;;;3.07;;
1721;SDS011;858;53.190;8.596;2023-08-20T19:05:06;7.70;;;3.40;;
1721;SDS011;858;53.190;8.596;2023-08-20T19:07:32;10.70;;;3.60;;
1721;SDS011;858;53.190;8.596;2023-08-20T19:09:58;9.90;;;4.53;;
1721;SDS011;858;53.190;8.596;2023-08-20T19:12:25;8.63;;;3.43;;
1721;SDS011;858;53.190;8.596;2023-08-20T19:14:51;10.37;;;3.73;;
1721;SDS011;858;53.190;8.596;2023-08-20T19:17:18;14.40;;;4.20;;
1721;SDS011;858;53.190;8.596;2023-08-20T19:19:46;9.20;;;3.83;;
1721;SDS011;858;53.190;8.596;2023-08-20T19:22:12;10.60;;;4.80;;
1721;SDS011;858;53.190;8.596;2023-08-20T19:24:39;10.20;;;3.70;;
1721;SDS011;858;53.190;8.596;2023-08-20T19:27:05;9.13;;;3.50;;
1721;SDS011;858;53.190;8.596;2023-08-20T19:29:32;9.57;;;3.50;;
1721;SDS011;858;53.190;8.596;2023-08-20T19:31:58;6.70;;;3.87;;
1721;SDS011;858;53.190;8.596;2023-08-20T19:34:25;15.13;;;4.23;;
1721;SDS011;858;53.190;8.596;2023-08-20T19:36:53;13.03;;;3.30;;
1721;SDS011;858;53.190;8.596;2023-08-20T19:39:19;14.23;;;4.10;;
1721;SDS011;858;53.190;8.596;2023-08-20T19:41:46;17.10;;;4.13;;
1721;SDS011;858;53.190;8.596;2023-08-20T19:44:13;8.13;;;3.40;;
1721;SDS011;858;53.190;8.596;2023-08-20T19:46:39;7.80;;;3.80;;
1721;SDS011;858;53.190;8.596;2023-08-20T19:49:07;9.60;;;4.53;;
1721;SDS011;858;53.190;8.596;2023-08-20T19:51:34;15.63;;;4.23;;
1721;SDS011;858;53.190;8.596;2023-08-20T19:54:02;9.90;;;5.47;;
1721;SDS011;858;53.190;8.596;2023-08-20T19:56:30;12.83;;;4.93;;
1721;SDS011;858;53.190;8.596;2023-08-20T19:58:57;14.17;;;4.10;;
1721;SDS011;858;53.190;8.596;2023-08-20T20:01:23;8.10;;;4.10;;
1721;SDS011;858;53.190;8.596;2023-08-20T20:03:50;6.70;;;3.27;;
1721;SDS011;858;53.190;8.596;2023-08-20T20:06:17;11.80;;;4.90;;
1721;SDS011;858;53.190;8.596;2023-08-20T20:08:44;12.73;;;4.70;;
1721;SDS011;858;53.190;8.596;2023-08-20T20:11:12;11.17;;;4.67;;
1721;SDS011;858;53.190;8.596;2023-08-20T20:13:38;7.93;;;3.37;;
1721;SDS011;858;53.190;8.596;2023-08-20T20:16:05;6.10;;;3.80;;
1721;SDS011;858;53.190;8.596;2023-08-20T20:18:31;19.13;;;4.63;;
1721;SDS011;858;53.190;8.596;2023-08-20T20:20:58;8.53;;;3.70;;
1721;SDS011;858;53.190;8.596;2023-08-20T20:23:27;10.63;;;4.10;;
1721;SDS011;858;53.190;8.596;2023-08-20T20:25:53;8.20;;;3.33;;
1721;SDS011;858;53.190;8.596;2023-08-20T20:28:21;8.00;;;4.27;;
1721;SDS011;858;53.190;8.596;2023-08-20T20:30:47;8.03;;;3.33;;
1721;SDS011;858;53.190;8.596;2023-08-20T20:33:15;9.20;;;3.57;;
1721;SDS011;858;53.190;8.596;2023-08-20T20:35:42;8.17;;;3.70;;
1721;SDS011;858;53.190;8.596;2023-08-20T20:38:08;14.23;;;4.30;;
1721;SDS011;858;53.190;8.596;2023-08-20T20:40:35;7.93;;;3.30;;
1721;SDS011;858;53.190;8.596;2023-08-20T20:43:02;11.40;;;3.70;;
1721;SDS011;858;53.190;8.596;2023-08-20T20:45:30;7.17;;;3.70;;
1721;SDS011;858;53.190;8.596;2023-08-20T20:47:57;8.97;;;3.90;;
1721;SDS011;858;53.190;8.596;2023-08-20T20:50:23;21.93;;;4.73;;
1721;SDS011;858;53.190;8.596;2023-08-20T20:52:49;6.17;;;3.20;;
1721;SDS011;858;53.190;8.596;2023-08-20T20:55:16;11.57;;;3.53;;
1721;SDS011;858;53.190;8.596;2023-08-20T20:57:42;10.83;;;4.40;;
1721;SDS011;858;53.190;8.596;2023-08-20T21:00:09;8.60;;;4.17;;
1721;SDS011;858;53.190;8.596;2023-08-20T21:02:37;8.33;;;3.30;;
1721;SDS011;858;53.190;8.596;2023-08-20T21:05:03;9.13;;;4.83;;
1721;SDS011;858;53.190;8.596;2023-08-20T21:07:30;9.43;;;3.80;;
1721;SDS011;858;53.190;8.596;2023-08-20T21:09:56;6.70;;;3.70;;
1721;SDS011;858;53.190;8.596;2023-08-20T21:12:23;6.73;;;3.80;;
1721;SDS011;858;53.190;8.596;2023-08-20T21:14:49;7.90;;;4.07;;
1721;SDS011;858;53.190;8.596;2023-08-20T21:17:16;7.97;;;4.20;;
1721;SDS011;858;53.190;8.596;2023-08-20T21:19:44;7.77;;;4.23;;
1721;SDS011;858;53.190;8.596;2023-08-20T21:22:10;10.17;;;3.20;;
1721;SDS011;858;53.190;8.596;2023-08-20T21:24:37;11.23;;;3.83;;
1721;SDS011;858;53.190;8.596;2023-08-20T21:27:03;9.70;;;3.50;;
1721;SDS011;858;53.190;8.596;2023-08-20T21:29:30;9.80;;;3.67;;
1721;SDS011;858;53.190;8.596;2023-08-20T21:31:56;11.13;;;4.17;;
1721;SDS011;858;53.190;8.596;2023-08-20T21:34:23;10.33;;;3.90;;
1721;SDS011;858;53.190;8.596;2023-08-20T21:36:50;9.60;;;3.53;;
1721;SDS011;858;53.190;8.596;2023-08-20T21:39:19;9.90;;;3.57;;
1721;SDS011;858;53.190;8.596;2023-08-20T21:41:45;12.63;;;4.27;;
1721;SDS011;858;53.190;8.596;2023-08-20T21:44:12;8.17;;;3.73;;
1721;SDS011;858;53.190;8.596;2023-08-20T21:46:39;6.60;;;3.57;;
1721;SDS011;858;53.190;8.596;2023-08-20T21:49:05;7.90;;;4.17;;
1721;SDS011;858;53.190;8.596;2023-08-20T21:51:32;6.37;;;3.37;;
1721;SDS011;858;53.190;8.596;2023-08-20T21:53:59;6.10;;;3.37;;
1721;SDS011;858;53.190;8.596;2023-08-20T21:56:27;9.27;;;3.77;;
1721;SDS011;858;53.190;8.596;2023-08-20T21:58:53;7.77;;;3.87;;
1721;SDS011;858;53.190;8.596;2023-08-20T22:01:20;8.03;;;3.37;;
1721;SDS011;858;53.190;8.596;2023-08-20T22:03:47;6.97;;;4.10;;
1721;SDS011;858;53.190;8.596;2023-08-20T22:06:14;6.17;;;3.00;;
1721;SDS011;858;53.190;8.596;2023-08-20T22:08:40;10.00;;;4.50;;
1721;SDS011;858;53.190;8.596;2023-08-20T22:11:09;6.00;;;3.90;;
1721;SDS011;858;53.190;8.596;2023-08-20T22:13:37;10.53;;;4.63;;
1721;SDS011;858;53.190;8.596;2023-08-20T22:16:04;10.73;;;4.57;;
1721;SDS011;858;53.190;8.596;2023-08-20T22:18:30;11.37;;;4.93;;
1721;SDS011;858;53.190;8.596;2023-08-20T22:20:57;6.93;;;3.53;;
1721;SDS011;858;53.190;8.596;2023-08-20T22:23:23;7.70;;;4.30;;
1721;SDS011;858;53.190;8.596;2023-08-20T22:25:49;11.37;;;3.93;;
1721;SDS011;858;53.190;8.596;2023-08-20T22:28:17;5.67;;;3.80;;
1721;SDS011;858;53.190;8.596;2023-08-20T22:30:45;12.63;;;3.97;;
1721;SDS011;858;53.190;8.596;2023-08-20T22:33:11;7.00;;;4.60;;
1721;SDS011;858;53.190;8.596;2023-08-20T22:35:38;8.47;;;3.70;;
1721;SDS011;858;53.190;8.596;2023-08-20T22:38:05;6.80;;;3.87;;
1721;SDS011;858;53.190;8.596;2023-08-20T22:40:32;8.90;;;4.60;;
1721;SDS011;858;53.190;8.596;2023-08-20T22:42:59;4.53;;;4.13;;
1721;SDS011;858;53.190;8.596;2023-08-20T22:45:27;11.80;;;4.37;;
1721;SDS011;858;53.190;8.596;2023-08-20T22:47:54;6.60;;;4.00;;
1721;SDS011;858;53.190;8.596;2023-08-20T22:50:20;4.20;;;3.33;;
1721;SDS011;858;53.190;8.596;2023-08-20T22:52:47;6.67;;;3.57;;
1721;SDS011;858;53.190;8.596;2023-08-20T22:55:14;7.07;;;3.73;;
1721;SDS011;858;53.190;8.596;2023-08-20T22:57:40;6.53;;;3.27;;
1721;SDS011;858;53.190;8.596;2023-08-20T23:00:07;5.73;;;4.00;;
1721;SDS011;858;53.190;8.596;2023-08-20T23:02:35;7.57;;;3.37;;
1721;SDS011;858;53.190;8.596;2023-08-20T23:05:01;6.77;;;3.60;;
1721;SDS011;858;53.190;8.596;2023-08-20T23:07:27;8.63;;;3.53;;
1721;SDS011;858;53.190;8.596;2023-08-20T23:09:54;6.83;;;3.30;;
1721;SDS011;858;53.190;8.596;2023-08-20T23:12:20;7.90;;;3.30;;
1721;SDS011;858;53.190;8.596;2023-08-20T23:14:48;4.40;;;3.07;;
1721;SDS011;858;53.190;8.596;2023-08-20T23:17:15;8.37;;;3.37;;
1721;SDS011;858;53.190;8.596;2023-08-20T23:19:45;5.57;;;3.00;;
1721;SDS011;858;53.190;8.596;2023-08-20T23:22:11;4.10;;;3.30;;
1721;SDS011;858;53.190;8.596;2023-08-20T23:24:38;5.33;;;2.70;;
1721;SDS011;858;53.190;8.596;2023-08-20T23:27:04;5.40;;;3.00;;
1721;SDS011;858;53.190;8.596;2023-08-20T23:29:33;8.23;;;3.73;;
1721;SDS011;858;53.190;8.596;2023-08-20T23:31:59;4.47;;;4.07;;
1721;SDS011;858;53.190;8.596;2023-08-20T23:34:26;7.13;;;2.80;;
1721;SDS011;858;53.190;8.596;2023-08-20T23:36:53;5.57;;;3.70;;
1721;SDS011;858;53.190;8.596;2023-08-20T23:39:20;8.17;;;4.00;;
1721;SDS011;858;53.190;8.596;2023-08-20T23:41:46;7.20;;;3.60;;
1721;SDS011;858;53.190;8.596;2023-08-20T23:44:13;5.90;;;3.93;;
1721;SDS011;858;53.190;8.596;2023-08-20T23:46:39;8.77;;;4.27;;
1721;SDS011;858;53.190;8.596;2023-08-20T23:49:06;4.20;;;3.37;;
1721;SDS011;858;53.190;8.596;2023-08-20T23:51:33;6.67;;;3.23;;
1721;SDS011;858;53.190;8.596;2023-08-20T23:54:01;8.87;;;3.70;;
1721;SDS011;858;53.190;8.596;2023-08-20T23:56:28;10.03;;;3.40;;
1721;SDS011;858;53.190;8.596;2023-08-20T23:58:55;6.40;;;3.50;;
